Time;durP1;ratioP1;P1;durP2;ratioP2;P2;SDS_P1;SDS_P2;PMS_P1;PMS_P2;Temp;Humidity;BMP_temperature;BMP_pressure;BME280_temperature;BME280_humidity;BME280_pressure;Samples;Min_cycle;Max_cycle;Signal;HPM_P1;HPM_P2
2022/11/19 00:01:08;;;;;;;;;;;;;;;;;;1878032;76;20547;-67
2022/11/19 00:03:35;;;;;;;;;;;;;;;;;;1878531;76;20152;-67
2022/11/19 00:06:02;;;;;;;;;;;;;;;;;;1879363;76;20183;-67
2022/11/19 00:08:29;;;;;;;;;;;;;;;;;;1885504;76;20188;-67
2022/11/19 00:10:56;;;;;;;;;;;;;;;;;;1883890;76;20172;-67
2022/11/19 00:13:23;;;;;;;;;;;;;;;;;;1883559;76;20243;-67
2022/11/19 00:15:49;;;;;;;;;;;;;;;;;;1885424;76;20456;-67
2022/11/19 00:18:16;;;;;;;;;;;;;;;;;;1883473;76;20155;-69
2022/11/19 00:20:43;;;;;;;;;;;;;;;;;;1885446;76;20488;-67
2022/11/19 00:23:10;;;;;;;;;;;;;;;;;;1883558;76;20178;-67
2022/11/19 00:25:37;;;;;;;;;;;;;;;;;;1885404;76;20202;-67
2022/11/19 00:28:05;;;;;;;;;;;;;;;;;;1885510;76;20247;-67
2022/11/19 00:30:32;;;;;;;;;;;;;;;;;;1885589;76;20167;-67
2022/11/19 00:32:59;;;;;;;;;;;;;;;;;;1885624;76;20197;-67
2022/11/19 00:35:26;;;;;;;;;;;;;;;;;;1885380;76;20315;-67
2022/11/19 00:37:53;;;;;;;;;;;;;;;;;;1885701;76;20420;-69
2022/11/19 00:40:20;;;;;;;;;;;;;;;;;;1885548;76;20402;-67
2022/11/19 00:45:32;;;;;;;;;;;;;;;;;;1885491;76;20236;-67
2022/11/19 00:47:59;;;;;;;;;;;;;;;;;;1885561;76;20633;-67
2022/11/19 00:50:26;;;;;;;;;;;;;;;;;;1885303;76;20480;-67
2022/11/19 00:52:53;;;;;;;;;;;;;;;;;;1883716;76;20486;-67
2022/11/19 00:55:20;;;;;;;;;;;;;;;;;;1885248;76;20184;-67
2022/11/19 00:57:47;;;;;;;;;;;;;;;;;;1885758;76;20444;-67
2022/11/19 01:00:14;;;;;;;;;;;;;;;;;;1885244;76;20445;-67
2022/11/19 01:02:41;;;;;;;;;;;;;;;;;;1883626;76;20887;-67
2022/11/19 01:05:08;;;;;;;;;;;;;;;;;;1885636;76;20124;-67
2022/11/19 01:07:37;;;;;;;;;;;;;;;;;;1885441;76;20183;-67
2022/11/19 01:10:04;;;;;;;;;;;;;;;;;;1885450;76;20183;-67
2022/11/19 01:13:33;;;;;;;;;;;;;;;;;;1885580;76;20163;-72
2022/11/19 01:14:59;;;;;;;;;;;;;;;;;;1882446;76;20172;-67
2022/11/19 01:17:26;;;;;;;;;;;;;;;;;;1883399;76;20456;-67
2022/11/19 01:19:54;;;;;;;;;;;;;;;;;;1883799;76;20464;-67
2022/11/19 01:22:21;;;;;;;;;;;;;;;;;;1885434;76;20179;-67
2022/11/19 01:24:48;;;;;;;;;;;;;;;;;;1885705;76;20544;-67
2022/11/19 01:27:15;;;;;;;;;;;;;;;;;;1885504;76;20199;-67
2022/11/19 01:29:42;;;;;;;;;;;;;;;;;;1883604;76;20879;-67
2022/11/19 01:32:08;;;;;;;;;;;;;;;;;;1883250;76;20147;-67
2022/11/19 01:34:35;;;;;;;;;;;;;;;;;;1885233;76;20491;-67
2022/11/19 01:37:02;;;;;;;;;;;;;;;;;;1883499;76;20889;-67
2022/11/19 01:39:29;;;;;;;;;;;;;;;;;;1885349;76;20155;-67
2022/11/19 01:41:56;;;;;;;;;;;;;;;;;;1885409;76;20167;-67
2022/11/19 01:44:23;;;;;;;;;;;;;;;;;;1883591;76;20171;-67
2022/11/19 01:46:49;;;;;;;;;;;;;;;;;;1885528;76;20302;-67
2022/11/19 01:49:16;;;;;;;;;;;;;;;;;;1883645;76;20449;-67
2022/11/19 01:51:43;;;;;;;;;;;;;;;;;;1885596;76;20156;-67
2022/11/19 01:54:10;;;;;;;;;;;;;;;;;;1885795;76;20186;-67
2022/11/19 01:56:37;;;;;;;;;;;;;;;;;;1883499;76;20509;-67
2022/11/19 01:59:04;;;;;;;;;;;;;;;;;;1883375;76;20287;-68
2022/11/19 02:01:31;;;;;;;;;;;;;;;;;;1885264;76;20171;-67
2022/11/19 02:03:59;;;;;;;;;;;;;;;;;;1885519;76;20172;-67
2022/11/19 02:06:26;;;;;;;;;;;;;;;;;;1885345;76;20183;-67
2022/11/19 02:08:53;;;;;;;;;;;;;;;;;;1885693;76;20171;-67
2022/11/19 02:11:20;;;;;;;;;;;;;;;;;;1885440;76;20146;-67
2022/11/19 02:13:47;;;;;;;;;;;;;;;;;;1885336;76;20152;-67
2022/11/19 02:16:13;;;;;;;;;;;;;;;;;;1883489;76;20597;-67
2022/11/19 02:18:40;;;;;;;;;;;;;;;;;;1885417;76;20405;-67
2022/11/19 02:21:07;;;;;;;;;;;;;;;;;;1885493;76;20538;-67
2022/11/19 02:23:34;;;;;;;;;;;;;;;;;;1883740;76;20229;-67
2022/11/19 02:26:01;;;;;;;;;;;;;;;;;;1885415;76;20555;-67
2022/11/19 02:28:28;;;;;;;;;;;;;;;;;;1885669;76;20453;-67
2022/11/19 02:30:55;;;;;;;;;;;;;;;;;;1885242;76;20191;-67
2022/11/19 02:33:22;;;;;;;;;;;;;;;;;;1885763;76;20163;-67
2022/11/19 02:35:49;;;;;;;;;;;;;;;;;;1885480;76;20147;-67
2022/11/19 02:38:16;;;;;;;;;;;;;;;;;;1885265;76;20563;-67
2022/11/19 02:40:43;;;;;;;;;;;;;;;;;;1883467;76;20478;-67
2022/11/19 02:43:10;;;;;;;;;;;;;;;;;;1885612;76;20246;-67
2022/11/19 02:45:37;;;;;;;;;;;;;;;;;;1885607;76;20175;-67
2022/11/19 02:48:04;;;;;;;;;;;;;;;;;;1883679;76;20179;-67
2022/11/19 02:50:31;;;;;;;;;;;;;;;;;;1885724;76;20183;-67
2022/11/19 02:52:57;;;;;;;;;;;;;;;;;;1885522;76;20171;-67
2022/11/19 02:55:24;;;;;;;;;;;;;;;;;;1883559;76;20187;-67
2022/11/19 02:57:51;;;;;;;;;;;;;;;;;;1885696;76;20240;-68
2022/11/19 03:05:48;;;;;;;;;;;;;;;;;;1885705;76;20373;-67
2022/11/19 03:08:15;;;;;;;;;;;;;;;;;;1885836;76;20252;-67
2022/11/19 03:10:42;;;;;;;;;;;;;;;;;;1885553;76;20491;-67
2022/11/19 03:18:40;;;;;;;;;;;;;;;;;;1886131;76;20174;-67
2022/11/19 03:21:07;;;;;;;;;;;;;;;;;;1885532;76;20171;-67
2022/11/19 03:23:33;;;;;;;;;;;;;;;;;;1883819;76;20168;-67
2022/11/19 03:26:00;;;;;;;;;;;;;;;;;;1885464;76;20151;-67
2022/11/19 03:28:27;;;;;;;;;;;;;;;;;;1883900;76;20218;-67
2022/11/19 03:30:54;;;;;;;;;;;;;;;;;;1883786;76;20179;-67
2022/11/19 03:33:21;;;;;;;;;;;;;;;;;;1885728;76;20143;-67
2022/11/19 03:35:48;;;;;;;;;;;;;;;;;;1883437;76;20147;-67
2022/11/19 03:38:15;;;;;;;;;;;;;;;;;;1885581;76;20167;-68
2022/11/19 03:40:42;;;;;;;;;;;;;;;;;;1885599;76;20468;-67
2022/11/19 03:43:09;;;;;;;;;;;;;;;;;;1885515;76;20280;-68
2022/11/19 03:45:36;;;;;;;;;;;;;;;;;;1885403;76;20453;-68
2022/11/19 03:48:03;;;;;;;;;;;;;;;;;;1885367;76;20440;-67
2022/11/19 03:50:30;;;;;;;;;;;;;;;;;;1885572;76;20175;-67
2022/11/19 03:52:56;;;;;;;;;;;;;;;;;;1885702;76;20448;-72
2022/11/19 03:55:23;;;;;;;;;;;;;;;;;;1885572;76;20183;-67
2022/11/19 03:57:50;;;;;;;;;;;;;;;;;;1885673;76;20163;-68
2022/11/19 04:00:17;;;;;;;;;;;;;;;;;;1883255;76;20168;-67
2022/11/19 04:02:44;;;;;;;;;;;;;;;;;;1885432;76;20303;-68
2022/11/19 04:05:11;;;;;;;;;;;;;;;;;;1883567;76;20448;-67
2022/11/19 04:07:38;;;;;;;;;;;;;;;;;;1885158;76;20460;-67
2022/11/19 04:10:05;;;;;;;;;;;;;;;;;;1870218;76;20458;-67
2022/11/19 04:12:32;;;;;;;;;;;;;;;;;;1881824;76;20170;-68
2022/11/19 04:14:58;;;;;;;;;;;;;;;;;;1882039;76;20433;-67
2022/11/19 04:17:25;;;;;;;;;;;;;;;;;;1870410;76;20592;-67
2022/11/19 04:19:52;;;;;;;;;;;;;;;;;;1870875;76;20866;-68
2022/11/19 04:22:19;;;;;;;;;;;;;;;;;;1881478;76;20410;-67
2022/11/19 04:24:46;;;;;;;;;;;;;;;;;;1882009;76;20176;-67
2022/11/19 04:27:13;;;;;;;;;;;;;;;;;;1882190;76;20179;-67
2022/11/19 04:29:40;;;;;;;;;;;;;;;;;;1882151;76;20159;-67
2022/11/19 04:32:07;;;;;;;;;;;;;;;;;;1870786;76;20243;-62
2022/11/19 04:34:34;;;;;;;;;;;;;;;;;;1881905;76;20198;-63
2022/11/19 04:37:01;;;;;;;;;;;;;;;;;;1870248;76;20163;-63
2022/11/19 04:39:28;;;;;;;;;;;;;;;;;;1870458;76;20168;-62
2022/11/19 04:41:55;;;;;;;;;;;;;;;;;;1881692;76;20536;-63
2022/11/19 04:44:22;;;;;;;;;;;;;;;;;;1882178;76;20214;-63
2022/11/19 04:46:48;;;;;;;;;;;;;;;;;;1881516;76;20456;-63
2022/11/19 04:49:15;;;;;;;;;;;;;;;;;;1881900;76;20438;-63
2022/11/19 04:51:42;;;;;;;;;;;;;;;;;;1882086;76;20414;-63
2022/11/19 04:54:09;;;;;;;;;;;;;;;;;;1881804;76;20900;-63
2022/11/19 04:56:36;;;;;;;;;;;;;;;;;;1881392;76;20174;-63
2022/11/19 04:59:03;;;;;;;;;;;;;;;;;;1881654;76;20242;-63
2022/11/19 05:01:30;;;;;;;;;;;;;;;;;;1876743;75;446667;-62
2022/11/19 05:03:57;;;;;;;;;;;;;;;;;;1900648;75;20159;-62
2022/11/19 05:06:23;;;;;;;;;;;;;;;;;;1900806;75;20194;-62
2022/11/19 05:08:50;;;;;;;;;;;;;;;;;;1895250;75;20152;-62
2022/11/19 05:11:17;;;;;;;;;;;;;;;;;;1887783;76;20183;-63
2022/11/19 05:13:44;;;;;;;;;;;;;;;;;;1888161;76;20174;-62
2022/11/19 05:16:11;;;;;;;;;;;;;;;;;;1887882;76;20397;-63
2022/11/19 05:18:38;;;;;;;;;;;;;;;;;;1879040;76;20218;-63
2022/11/19 05:21:05;;;;;;;;;;;;;;;;;;1878697;76;20155;-64
2022/11/19 05:23:32;;;;;;;;;;;;;;;;;;1888254;76;20421;-64
2022/11/19 05:25:59;;;;;;;;;;;;;;;;;;1887761;76;20191;-63
2022/11/19 05:28:26;;;;;;;;;;;;;;;;;;1888305;76;20281;-63
2022/11/19 05:30:53;;;;;;;;;;;;;;;;;;1878763;76;20167;-62
2022/11/19 05:33:20;;;;;;;;;;;;;;;;;;1888073;76;20401;-62
2022/11/19 05:35:47;;;;;;;;;;;;;;;;;;1879036;76;20477;-63
2022/11/19 05:38:14;;;;;;;;;;;;;;;;;;1887879;76;20872;-63
2022/11/19 05:40:40;;;;;;;;;;;;;;;;;;1878702;76;20726;-63
2022/11/19 05:43:07;;;;;;;;;;;;;;;;;;1887975;76;20432;-63
2022/11/19 05:45:34;;;;;;;;;;;;;;;;;;1878892;76;20957;-63
2022/11/19 05:48:01;;;;;;;;;;;;;;;;;;1887970;76;20396;-63
2022/11/19 05:50:28;;;;;;;;;;;;;;;;;;1878863;76;20535;-63
2022/11/19 05:52:55;;;;;;;;;;;;;;;;;;1879312;76;20452;-63
2022/11/19 05:55:22;;;;;;;;;;;;;;;;;;1887829;76;20508;-63
2022/11/19 05:57:49;;;;;;;;;;;;;;;;;;1887992;76;20416;-63
2022/11/19 06:00:16;;;;;;;;;;;;;;;;;;1887658;76;20610;-62
2022/11/19 06:02:43;;;;;;;;;;;;;;;;;;1878732;76;20570;-63
2022/11/19 06:05:10;;;;;;;;;;;;;;;;;;1887747;76;20156;-62
2022/11/19 06:07:36;;;;;;;;;;;;;;;;;;1878924;76;20167;-63
2022/11/19 06:10:03;;;;;;;;;;;;;;;;;;1895002;76;20182;-63
2022/11/19 06:12:30;;;;;;;;;;;;;;;;;;1897260;76;20174;-63
2022/11/19 06:14:57;;;;;;;;;;;;;;;;;;1897223;76;20186;-63
2022/11/19 06:17:24;;;;;;;;;;;;;;;;;;1897210;76;20207;-63
2022/11/19 06:19:51;;;;;;;;;;;;;;;;;;1897401;76;20171;-63
2022/11/19 06:22:18;;;;;;;;;;;;;;;;;;1897232;76;20171;-63
2022/11/19 06:24:45;;;;;;;;;;;;;;;;;;1897314;76;20166;-63
2022/11/19 06:27:11;;;;;;;;;;;;;;;;;;1897312;76;20116;-63
2022/11/19 06:29:38;;;;;;;;;;;;;;;;;;1897361;76;20147;-63
2022/11/19 06:32:05;;;;;;;;;;;;;;;;;;1897156;76;20410;-62
2022/11/19 06:34:32;;;;;;;;;;;;;;;;;;1897414;76;20123;-63
2022/11/19 06:36:59;;;;;;;;;;;;;;;;;;1885202;76;20205;-63
2022/11/19 06:39:26;;;;;;;;;;;;;;;;;;1897270;76;20178;-63
2022/11/19 06:41:53;;;;;;;;;;;;;;;;;;1897213;76;20171;-63
2022/11/19 06:44:20;;;;;;;;;;;;;;;;;;1885704;76;20183;-63
2022/11/19 06:46:46;;;;;;;;;;;;;;;;;;1897284;76;20171;-62
2022/11/19 06:49:13;;;;;;;;;;;;;;;;;;1897606;76;20162;-63
2022/11/19 06:51:40;;;;;;;;;;;;;;;;;;1897434;76;20163;-63
2022/11/19 06:54:08;;;;;;;;;;;;;;;;;;1885995;76;20208;-63
2022/11/19 06:56:34;;;;;;;;;;;;;;;;;;1885679;76;20412;-62
2022/11/19 06:59:01;;;;;;;;;;;;;;;;;;1897608;76;20432;-63
2022/11/19 07:01:28;;;;;;;;;;;;;;;;;;1896993;76;20178;-63
2022/11/19 07:03:55;;;;;;;;;;;;;;;;;;1885581;76;20179;-63
2022/11/19 07:06:22;;;;;;;;;;;;;;;;;;1885852;76;20193;-63
2022/11/19 07:08:49;;;;;;;;;;;;;;;;;;1896105;76;20167;-63
2022/11/19 07:11:25;;;;;;;;;;;;;;;;;;1885516;76;20187;-63
2022/11/19 07:13:59;;;;;;;;;;;;;;;;;;1883516;76;20450;-63
2022/11/19 07:16:25;;;;;;;;;;;;;;;;;;1883528;76;20179;-63
2022/11/19 07:18:52;;;;;;;;;;;;;;;;;;1885732;76;20203;-63
2022/11/19 07:21:19;;;;;;;;;;;;;;;;;;1883640;76;20175;-63
2022/11/19 07:23:46;;;;;;;;;;;;;;;;;;1883787;76;20183;-63
2022/11/19 07:26:13;;;;;;;;;;;;;;;;;;1885564;76;20170;-63
2022/11/19 07:28:40;;;;;;;;;;;;;;;;;;1883791;76;20439;-63
2022/11/19 07:31:07;;;;;;;;;;;;;;;;;;1883646;76;20448;-63
2022/11/19 07:33:34;;;;;;;;;;;;;;;;;;1883795;76;20445;-63
2022/11/19 07:36:01;;;;;;;;;;;;;;;;;;1885670;76;20116;-63
2022/11/19 07:38:29;;;;;;;;;;;;;;;;;;1883803;76;20925;-63
2022/11/19 07:40:56;;;;;;;;;;;;;;;;;;1885349;76;20210;-63
2022/11/19 07:43:23;;;;;;;;;;;;;;;;;;1885619;76;20213;-63
2022/11/19 07:45:50;;;;;;;;;;;;;;;;;;1885425;76;20389;-63
2022/11/19 07:48:17;;;;;;;;;;;;;;;;;;1885318;76;20159;-63
2022/11/19 07:50:44;;;;;;;;;;;;;;;;;;1885437;76;20449;-63
2022/11/19 07:53:11;;;;;;;;;;;;;;;;;;1885501;76;20283;-63
2022/11/19 07:55:38;;;;;;;;;;;;;;;;;;1885639;76;20505;-63
2022/11/19 07:58:05;;;;;;;;;;;;;;;;;;1885602;76;20217;-64
2022/11/19 08:00:31;;;;;;;;;;;;;;;;;;1885312;76;20168;-64
2022/11/19 08:02:59;;;;;;;;;;;;;;;;;;1885254;76;20848;-66
2022/11/19 08:05:25;;;;;;;;;;;;;;;;;;1883544;76;20213;-65
2022/11/19 08:07:52;;;;;;;;;;;;;;;;;;1885380;76;20160;-64
2022/11/19 08:10:20;;;;;;;;;;;;;;;;;;1886795;76;20242;-63
2022/11/19 08:13:01;;;;;;;;;;;;;;;;;;1887997;76;20203;-63
2022/11/19 08:15:15;;;;;;;;;;;;;;;;;;1885021;76;20221;-63
2022/11/19 08:20:27;;;;;;;;;;;;;;;;;;1887622;76;20213;-64
2022/11/19 08:22:54;;;;;;;;;;;;;;;;;;1887500;76;20175;-65
2022/11/19 08:25:21;;;;;;;;;;;;;;;;;;1887754;76;20117;-65
2022/11/19 08:27:48;;;;;;;;;;;;;;;;;;1887777;76;20206;-67
2022/11/19 08:30:15;;;;;;;;;;;;;;;;;;1887828;76;20348;-67
2022/11/19 08:32:42;;;;;;;;;;;;;;;;;;1878789;76;20526;-67
2022/11/19 08:35:09;;;;;;;;;;;;;;;;;;1887986;76;20163;-67
2022/11/19 08:37:35;;;;;;;;;;;;;;;;;;1888067;76;20191;-67
2022/11/19 08:40:02;;;;;;;;;;;;;;;;;;1888195;76;20185;-68
2022/11/19 08:45:14;;;;;;;;;;;;;;;;;;1888260;76;20155;-68
2022/11/19 08:47:41;;;;;;;;;;;;;;;;;;1888003;76;20278;-68
2022/11/19 08:50:08;;;;;;;;;;;;;;;;;;1888194;76;20164;-67
2022/11/19 08:52:36;;;;;;;;;;;;;;;;;;1888082;76;20175;-68
2022/11/19 08:55:03;;;;;;;;;;;;;;;;;;1887903;76;20202;-68
2022/11/19 08:57:30;;;;;;;;;;;;;;;;;;1888024;76;20252;-68
2022/11/19 08:59:57;;;;;;;;;;;;;;;;;;1887915;76;20206;-68
2022/11/19 09:02:24;;;;;;;;;;;;;;;;;;1887772;76;20172;-68
2022/11/19 09:04:51;;;;;;;;;;;;;;;;;;1888301;76;20167;-68
2022/11/19 09:07:18;;;;;;;;;;;;;;;;;;1888031;76;20206;-68
2022/11/19 09:09:45;;;;;;;;;;;;;;;;;;1889537;76;20873;-68
2022/11/19 09:12:12;;;;;;;;;;;;;;;;;;1885860;76;20493;-69
2022/11/19 09:14:39;;;;;;;;;;;;;;;;;;1897487;76;20992;-68
2022/11/19 09:17:06;;;;;;;;;;;;;;;;;;1897388;76;20155;-68
2022/11/19 09:19:33;;;;;;;;;;;;;;;;;;1885601;76;20163;-68
2022/11/19 09:21:59;;;;;;;;;;;;;;;;;;1897227;76;20194;-68
2022/11/19 09:24:26;;;;;;;;;;;;;;;;;;1897443;76;20170;-68
2022/11/19 09:26:53;;;;;;;;;;;;;;;;;;1897080;76;20149;-67
2022/11/19 09:29:20;;;;;;;;;;;;;;;;;;1897379;76;20479;-67
2022/11/19 09:31:47;;;;;;;;;;;;;;;;;;1897201;76;20504;-67
2022/11/19 09:34:14;;;;;;;;;;;;;;;;;;1897722;76;20170;-67
2022/11/19 09:36:41;;;;;;;;;;;;;;;;;;1885549;76;20856;-68
2022/11/19 09:39:07;;;;;;;;;;;;;;;;;;1885690;76;20186;-67
2022/11/19 09:41:34;;;;;;;;;;;;;;;;;;1885722;76;20271;-68
2022/11/19 09:44:01;;;;;;;;;;;;;;;;;;1897385;76;20135;-68
2022/11/19 09:46:28;;;;;;;;;;;;;;;;;;1885618;76;20614;-68
2022/11/19 09:48:55;;;;;;;;;;;;;;;;;;1885810;76;20428;-67
2022/11/19 09:51:22;;;;;;;;;;;;;;;;;;1885591;76;20150;-68
2022/11/19 09:53:49;;;;;;;;;;;;;;;;;;1885759;76;20163;-67
2022/11/19 09:56:16;;;;;;;;;;;;;;;;;;1897152;76;20572;-67
2022/11/19 09:58:44;;;;;;;;;;;;;;;;;;1897725;76;20108;-67
2022/11/19 10:01:11;;;;;;;;;;;;;;;;;;1897190;76;20158;-67
2022/11/19 10:03:37;;;;;;;;;;;;;;;;;;1897517;76;20159;-67
2022/11/19 10:06:04;;;;;;;;;;;;;;;;;;1897256;76;20189;-67
2022/11/19 10:08:31;;;;;;;;;;;;;;;;;;1897575;76;20161;-67
2022/11/19 10:10:58;;;;;;;;;;;;;;;;;;1897225;76;20159;-68
2022/11/19 10:13:25;;;;;;;;;;;;;;;;;;1897743;76;20202;-68
2022/11/19 10:15:52;;;;;;;;;;;;;;;;;;1897452;76;20119;-68
2022/11/19 10:18:19;;;;;;;;;;;;;;;;;;1897445;76;20416;-67
2022/11/19 10:20:46;;;;;;;;;;;;;;;;;;1897282;76;20432;-67
2022/11/19 10:23:13;;;;;;;;;;;;;;;;;;1885453;76;20413;-68
2022/11/19 10:25:40;;;;;;;;;;;;;;;;;;1897366;76;20696;-67
2022/11/19 10:28:07;;;;;;;;;;;;;;;;;;1897376;76;20482;-68
2022/11/19 10:30:34;;;;;;;;;;;;;;;;;;1897335;76;20448;-68
2022/11/19 10:33:01;;;;;;;;;;;;;;;;;;1885566;76;20151;-67
2022/11/19 10:35:28;;;;;;;;;;;;;;;;;;1885505;76;20183;-68
2022/11/19 10:37:55;;;;;;;;;;;;;;;;;;1897198;76;20167;-67
2022/11/19 10:40:22;;;;;;;;;;;;;;;;;;1896928;76;20188;-67
2022/11/19 10:42:48;;;;;;;;;;;;;;;;;;1897417;76;20163;-67
2022/11/19 10:45:16;;;;;;;;;;;;;;;;;;1897155;76;20178;-68
2022/11/19 10:47:43;;;;;;;;;;;;;;;;;;1897440;76;20120;-68
2022/11/19 10:50:10;;;;;;;;;;;;;;;;;;1897310;76;20281;-67
2022/11/19 10:52:37;;;;;;;;;;;;;;;;;;1885402;76;20174;-67
2022/11/19 10:55:03;;;;;;;;;;;;;;;;;;1885642;76;20151;-68
2022/11/19 10:57:30;;;;;;;;;;;;;;;;;;1897275;76;20174;-68
2022/11/19 10:59:57;;;;;;;;;;;;;;;;;;1897217;76;20159;-68
2022/11/19 11:02:24;;;;;;;;;;;;;;;;;;1896888;76;20179;-68
2022/11/19 11:04:51;;;;;;;;;;;;;;;;;;1897536;76;20406;-68
2022/11/19 11:07:19;;;;;;;;;;;;;;;;;;1897090;76;20164;-68
2022/11/19 11:09:46;;;;;;;;;;;;;;;;;;1897361;76;20171;-68
2022/11/19 11:14:58;;;;;;;;;;;;;;;;;;1888011;76;20194;-66
2022/11/19 11:17:25;;;;;;;;;;;;;;;;;;1878788;76;20187;-66
2022/11/19 11:19:52;;;;;;;;;;;;;;;;;;1888129;76;20167;-66
2022/11/19 11:22:21;;;;;;;;;;;;;;;;;;1879152;76;20172;-66
2022/11/19 11:24:48;;;;;;;;;;;;;;;;;;1878939;76;20306;-66
2022/11/19 11:27:15;;;;;;;;;;;;;;;;;;1878733;76;20171;-67
2022/11/19 11:29:42;;;;;;;;;;;;;;;;;;1888078;76;20112;-66
2022/11/19 11:32:13;;;;;;;;;;;;;;;;;;1887754;76;20445;-66
2022/11/19 11:34:37;;;;;;;;;;;;;;;;;;1886553;76;20179;-66
2022/11/19 11:37:04;;;;;;;;;;;;;;;;;;1887667;76;20167;-66
2022/11/19 11:39:31;;;;;;;;;;;;;;;;;;1887824;76;20120;-66
2022/11/19 11:41:58;;;;;;;;;;;;;;;;;;1887865;76;20471;-66
2022/11/19 11:44:25;;;;;;;;;;;;;;;;;;1878638;76;20167;-67
2022/11/19 11:46:52;;;;;;;;;;;;;;;;;;1878918;76;20202;-65
2022/11/19 11:49:19;;;;;;;;;;;;;;;;;;1888094;76;20167;-71
2022/11/19 11:51:45;;;;;;;;;;;;;;;;;;1887921;76;20179;-65
2022/11/19 11:54:12;;;;;;;;;;;;;;;;;;1888195;76;20205;-66
2022/11/19 11:56:39;;;;;;;;;;;;;;;;;;1878650;76;20437;-66
2022/11/19 11:59:06;;;;;;;;;;;;;;;;;;1888055;76;20432;-68
2022/11/19 12:01:33;;;;;;;;;;;;;;;;;;1887428;76;20390;-68
2022/11/19 12:04:00;;;;;;;;;;;;;;;;;;1888353;76;20180;-67
2022/11/19 12:06:27;;;;;;;;;;;;;;;;;;1888070;76;20163;-68
2022/11/19 12:08:54;;;;;;;;;;;;;;;;;;1878954;76;20179;-67
2022/11/19 12:11:21;;;;;;;;;;;;;;;;;;1878669;76;20464;-66
2022/11/19 12:13:48;;;;;;;;;;;;;;;;;;1888037;76;20164;-66
2022/11/19 12:16:15;;;;;;;;;;;;;;;;;;1887800;76;20225;-66
2022/11/19 12:18:42;;;;;;;;;;;;;;;;;;1887997;76;20108;-66
2022/11/19 12:21:09;;;;;;;;;;;;;;;;;;1887787;76;20343;-66
2022/11/19 12:23:36;;;;;;;;;;;;;;;;;;1888025;76;20816;-66
2022/11/19 12:26:03;;;;;;;;;;;;;;;;;;1887878;76;20314;-66
2022/11/19 12:28:30;;;;;;;;;;;;;;;;;;1878962;76;20183;-66
2022/11/19 12:30:57;;;;;;;;;;;;;;;;;;1887776;76;20163;-66
2022/11/19 12:33:23;;;;;;;;;;;;;;;;;;1888098;76;20496;-66
2022/11/19 12:35:51;;;;;;;;;;;;;;;;;;1887749;76;20390;-66
2022/11/19 12:38:19;;;;;;;;;;;;;;;;;;1888274;76;20305;-66
2022/11/19 12:40:45;;;;;;;;;;;;;;;;;;1878879;76;20440;-67
2022/11/19 12:43:14;;;;;;;;;;;;;;;;;;1888190;76;20167;-73
2022/11/19 12:45:41;;;;;;;;;;;;;;;;;;1887830;76;20123;-68
2022/11/19 12:48:07;;;;;;;;;;;;;;;;;;1887968;76;20408;-75
2022/11/19 12:50:34;;;;;;;;;;;;;;;;;;1887951;76;20604;-66
2022/11/19 12:53:01;;;;;;;;;;;;;;;;;;1888047;76;20170;-67
2022/11/19 12:55:29;;;;;;;;;;;;;;;;;;1878649;76;20179;-66
2022/11/19 12:57:56;;;;;;;;;;;;;;;;;;1878844;76;20218;-65
2022/11/19 13:00:23;;;;;;;;;;;;;;;;;;1887829;76;20209;-66
2022/11/19 13:02:50;;;;;;;;;;;;;;;;;;1887855;76;20446;-70
2022/11/19 13:05:16;;;;;;;;;;;;;;;;;;1887805;76;20567;-68
2022/11/19 13:07:43;;;;;;;;;;;;;;;;;;1887731;76;20358;-66
2022/11/19 13:10:10;;;;;;;;;;;;;;;;;;1887962;76;20175;-65
2022/11/19 13:12:37;;;;;;;;;;;;;;;;;;1881324;76;20172;-65
2022/11/19 13:15:04;;;;;;;;;;;;;;;;;;1883556;76;20490;-65
2022/11/19 13:17:31;;;;;;;;;;;;;;;;;;1885436;76;20687;-65
2022/11/19 13:19:58;;;;;;;;;;;;;;;;;;1883530;76;20167;-64
2022/11/19 13:22:25;;;;;;;;;;;;;;;;;;1883479;76;20179;-65
2022/11/19 13:24:52;;;;;;;;;;;;;;;;;;1883620;76;20144;-65
2022/11/19 13:27:19;;;;;;;;;;;;;;;;;;1883294;76;20171;-66
2022/11/19 13:29:46;;;;;;;;;;;;;;;;;;1883216;76;20175;-66
2022/11/19 13:32:13;;;;;;;;;;;;;;;;;;1885242;76;20199;-66
2022/11/19 13:34:40;;;;;;;;;;;;;;;;;;1883611;76;20174;-66
2022/11/19 13:37:07;;;;;;;;;;;;;;;;;;1885668;76;20298;-66
2022/11/19 13:39:34;;;;;;;;;;;;;;;;;;1885763;76;20456;-66
2022/11/19 13:44:46;;;;;;;;;;;;;;;;;;1885693;76;20193;-64
2022/11/19 13:47:13;;;;;;;;;;;;;;;;;;1885481;76;20298;-66
2022/11/19 13:49:40;;;;;;;;;;;;;;;;;;1885581;76;20421;-66
2022/11/19 13:52:07;;;;;;;;;;;;;;;;;;1885458;76;20187;-65
2022/11/19 13:54:34;;;;;;;;;;;;;;;;;;1885686;76;20581;-64
2022/11/19 13:57:02;;;;;;;;;;;;;;;;;;1885360;76;20432;-66
2022/11/19 13:59:29;;;;;;;;;;;;;;;;;;1883485;76;20206;-64
2022/11/19 14:01:57;;;;;;;;;;;;;;;;;;1884791;76;20516;-64
2022/11/19 14:04:24;;;;;;;;;;;;;;;;;;1883522;76;20353;-64
2022/11/19 14:06:52;;;;;;;;;;;;;;;;;;1883717;76;20563;-64
2022/11/19 14:09:19;;;;;;;;;;;;;;;;;;1885406;76;20164;-64
2022/11/19 14:11:46;;;;;;;;;;;;;;;;;;1883486;76;20180;-64
2022/11/19 14:26:18;;;;;;;;;;;;;;;;;;1885276;76;20440;-64
2022/11/19 14:27:40;;;;;;;;;;;;;;;;;;1885541;76;20163;-64
2022/11/19 14:30:07;;;;;;;;;;;;;;;;;;1885634;76;20186;-64
2022/11/19 14:32:34;;;;;;;;;;;;;;;;;;1885627;76;20217;-64
2022/11/19 14:35:01;;;;;;;;;;;;;;;;;;1885639;76;20117;-64
2022/11/19 14:37:28;;;;;;;;;;;;;;;;;;1883096;76;20365;-63
2022/11/19 14:39:55;;;;;;;;;;;;;;;;;;1885423;76;20175;-64
2022/11/19 14:42:22;;;;;;;;;;;;;;;;;;1885596;76;20116;-64
2022/11/19 14:44:49;;;;;;;;;;;;;;;;;;1885651;76;20393;-64
2022/11/19 14:47:16;;;;;;;;;;;;;;;;;;1885579;76;20315;-64
2022/11/19 14:49:43;;;;;;;;;;;;;;;;;;1885877;76;20981;-64
2022/11/19 14:52:09;;;;;;;;;;;;;;;;;;1885669;76;20168;-64
2022/11/19 14:54:36;;;;;;;;;;;;;;;;;;1885854;76;20171;-64
2022/11/19 14:57:03;;;;;;;;;;;;;;;;;;1884129;76;20104;-64
2022/11/19 14:59:30;;;;;;;;;;;;;;;;;;1885839;76;20512;-64
2022/11/19 15:01:57;;;;;;;;;;;;;;;;;;1885343;76;20159;-64
2022/11/19 15:04:26;;;;;;;;;;;;;;;;;;1885648;76;20146;-68
2022/11/19 15:06:53;;;;;;;;;;;;;;;;;;1885845;76;20163;-69
2022/11/19 15:09:20;;;;;;;;;;;;;;;;;;1885697;76;20168;-65
2022/11/19 15:11:47;;;;;;;;;;;;;;;;;;1885356;76;20170;-65
2022/11/19 15:14:14;;;;;;;;;;;;;;;;;;1883888;76;20366;-65
2022/11/19 15:16:41;;;;;;;;;;;;;;;;;;1883722;76;20125;-64
2022/11/19 15:19:08;;;;;;;;;;;;;;;;;;1885821;76;20433;-65
2022/11/19 15:21:34;;;;;;;;;;;;;;;;;;1885887;76;20171;-64
2022/11/19 15:24:01;;;;;;;;;;;;;;;;;;1884036;76;20171;-65
2022/11/19 15:26:28;;;;;;;;;;;;;;;;;;1883723;76;20552;-69
2022/11/19 15:28:56;;;;;;;;;;;;;;;;;;1885799;76;20929;-69
2022/11/19 15:31:23;;;;;;;;;;;;;;;;;;1885436;76;20167;-71
2022/11/19 15:33:50;;;;;;;;;;;;;;;;;;1883985;76;20417;-66
2022/11/19 15:36:17;;;;;;;;;;;;;;;;;;1885470;76;20445;-64
2022/11/19 15:38:44;;;;;;;;;;;;;;;;;;1885884;76;20171;-64
2022/11/19 15:41:11;;;;;;;;;;;;;;;;;;1885550;76;20116;-65
2022/11/19 15:43:38;;;;;;;;;;;;;;;;;;1885645;76;20155;-64
2022/11/19 15:46:04;;;;;;;;;;;;;;;;;;1885331;76;20474;-64
2022/11/19 15:48:31;;;;;;;;;;;;;;;;;;1885686;76;20444;-64
2022/11/19 15:50:58;;;;;;;;;;;;;;;;;;1885345;76;20571;-64
2022/11/19 15:53:27;;;;;;;;;;;;;;;;;;1883837;76;20168;-64
2022/11/19 15:55:53;;;;;;;;;;;;;;;;;;1885602;76;20275;-64
2022/11/19 15:58:20;;;;;;;;;;;;;;;;;;1885945;76;20381;-64
2022/11/19 16:00:48;;;;;;;;;;;;;;;;;;1885350;76;20436;-64
2022/11/19 16:03:15;;;;;;;;;;;;;;;;;;1883859;76;20467;-64
2022/11/19 16:05:41;;;;;;;;;;;;;;;;;;1885658;76;20402;-64
2022/11/19 16:08:10;;;;;;;;;;;;;;;;;;1885762;76;20160;-64
2022/11/19 16:10:37;;;;;;;;;;;;;;;;;;1883721;76;20213;-64
2022/11/19 16:18:35;;;;;;;;;;;;;;;;;;1896758;76;20213;-64
2022/11/19 16:21:02;;;;;;;;;;;;;;;;;;1897399;76;20151;-64
2022/11/19 16:23:29;;;;;;;;;;;;;;;;;;1885897;76;20204;-64
2022/11/19 16:25:56;;;;;;;;;;;;;;;;;;1885774;76;20182;-64
2022/11/19 16:28:23;;;;;;;;;;;;;;;;;;1897350;76;20365;-64
2022/11/19 16:30:50;;;;;;;;;;;;;;;;;;1897417;76;20451;-64
2022/11/19 16:33:17;;;;;;;;;;;;;;;;;;1897521;76;20256;-64
2022/11/19 16:35:44;;;;;;;;;;;;;;;;;;1897457;76;20609;-64
2022/11/19 16:38:11;;;;;;;;;;;;;;;;;;1885697;76;20444;-64
2022/11/19 16:43:25;;;;;;;;;;;;;;;;;;1896939;73;20120;-64
2022/11/19 16:45:52;;;;;;;;;;;;;;;;;;1897421;76;20171;-64
2022/11/19 16:48:19;;;;;;;;;;;;;;;;;;1897461;76;20255;-64
2022/11/19 16:50:46;;;;;;;;;;;;;;;;;;1885586;76;20213;-65
2022/11/19 16:53:13;;;;;;;;;;;;;;;;;;1896915;76;20396;-66
2022/11/19 16:55:41;;;;;;;;;;;;;;;;;;1897155;76;20435;-65
2022/11/19 16:58:08;;;;;;;;;;;;;;;;;;1897454;76;20147;-66
2022/11/19 17:00:35;;;;;;;;;;;;;;;;;;1885329;76;20206;-66
2022/11/19 17:03:03;;;;;;;;;;;;;;;;;;1897490;76;20163;-65
2022/11/19 17:05:29;;;;;;;;;;;;;;;;;;1897095;76;20171;-67
2022/11/19 17:07:56;;;;;;;;;;;;;;;;;;1897452;76;20542;-67
2022/11/19 17:10:24;;;;;;;;;;;;;;;;;;1897239;76;20182;-65
2022/11/19 17:12:51;;;;;;;;;;;;;;;;;;1885188;76;20926;-65
2022/11/19 17:15:18;;;;;;;;;;;;;;;;;;1878988;76;20190;-65
2022/11/19 17:17:45;;;;;;;;;;;;;;;;;;1887966;76;20167;-65
2022/11/19 17:20:14;;;;;;;;;;;;;;;;;;1888163;76;20121;-66
2022/11/19 17:22:41;;;;;;;;;;;;;;;;;;1887996;76;20108;-66
2022/11/19 17:25:08;;;;;;;;;;;;;;;;;;1888147;76;20159;-66
2022/11/19 17:27:35;;;;;;;;;;;;;;;;;;1878916;76;20493;-66